createdAt,value
2023-02-12T00:01:26.238Z,6.62
2023-02-12T00:03:54.741Z,6.61
2023-02-12T00:06:22.882Z,6.60
2023-02-12T00:08:52.474Z,6.60
2023-02-12T00:11:23.738Z,6.62
2023-02-12T00:13:52.834Z,6.63
2023-02-12T00:16:24.200Z,6.62
2023-02-12T00:18:53.486Z,6.61
2023-02-12T00:21:22.562Z,6.60
2023-02-12T00:23:50.450Z,6.59
2023-02-12T00:26:20.625Z,6.59
2023-02-12T00:28:50.873Z,6.58
2023-02-12T00:31:24.477Z,6.59
2023-02-12T00:33:52.355Z,6.61
2023-02-12T00:36:22.703Z,6.59
2023-02-12T00:38:53.470Z,6.59
2023-02-12T00:41:22.160Z,6.58
2023-02-12T00:43:51.045Z,6.56
2023-02-12T00:46:19.096Z,6.57
2023-02-12T00:48:47.002Z,6.58
2023-02-12T00:51:15.188Z,6.60
2023-02-12T00:53:43.136Z,6.60
2023-02-12T00:56:11.120Z,6.61
2023-02-12T00:58:38.973Z,6.60
2023-02-12T01:01:08.023Z,6.60
2023-02-12T01:03:37.191Z,6.63
2023-02-12T01:06:06.012Z,6.63
2023-02-12T01:08:34.233Z,6.63
2023-02-12T01:11:03.775Z,6.64
2023-02-12T01:13:33.026Z,6.64
2023-02-12T01:16:22.587Z,6.64
2023-02-12T01:18:55.610Z,6.63
2023-02-12T01:21:27.583Z,6.64
2023-02-12T01:23:56.542Z,6.66
2023-02-12T01:26:26.054Z,6.66
2023-02-12T01:28:57.709Z,6.65
2023-02-12T01:31:28.859Z,6.65
2023-02-12T01:33:59.722Z,6.65
2023-02-12T01:36:29.631Z,6.63
2023-02-12T01:39:02.807Z,6.60
2023-02-12T01:41:34.886Z,6.59
2023-02-12T01:44:18.142Z,6.57
2023-02-12T01:46:49.995Z,6.56
2023-02-12T01:49:33.179Z,6.54
2023-02-12T01:52:09.408Z,6.52
2023-02-12T01:54:37.914Z,6.53
2023-02-12T01:57:09.595Z,6.53
2023-02-12T01:59:40.580Z,6.54
2023-02-12T02:02:08.857Z,6.54
2023-02-12T02:04:41.976Z,6.53
2023-02-12T02:07:12.928Z,6.51
2023-02-12T02:09:41.707Z,6.49
2023-02-12T02:12:28.173Z,6.47
2023-02-12T02:15:00.163Z,6.46
2023-02-12T02:17:49.567Z,6.46
2023-02-12T02:20:36.345Z,6.47
2023-02-12T02:23:16.395Z,6.45
2023-02-12T02:25:46.929Z,6.46
2023-02-12T02:28:34.055Z,6.45
2023-02-12T02:31:14.807Z,6.45
2023-02-12T02:34:17.499Z,6.43
2023-02-12T02:37:00.109Z,6.41
2023-02-12T02:39:42.129Z,6.40
2023-02-12T02:42:32.511Z,6.38
2023-02-12T02:45:11.435Z,6.39
2023-02-12T02:47:55.486Z,6.40
2023-02-12T02:50:27.203Z,6.40
2023-02-12T02:53:15.655Z,6.40
2023-02-12T02:55:49.548Z,6.39
2023-02-12T02:58:21.840Z,6.40
2023-02-12T03:01:03.953Z,6.39
2023-02-12T03:03:41.495Z,6.39
2023-02-12T03:06:14.515Z,6.38
2023-02-12T03:08:50.133Z,6.37
2023-02-12T03:11:21.288Z,6.39
2023-02-12T03:14:05.750Z,6.41
2023-02-12T03:17:05.117Z,6.42
2023-02-12T03:20:12.158Z,6.42
2023-02-12T03:22:44.673Z,6.42
2023-02-12T03:25:20.881Z,6.41
2023-02-12T03:28:02.942Z,6.42
2023-02-12T03:30:51.161Z,6.42
2023-02-12T03:33:46.720Z,6.42
2023-02-12T03:36:25.910Z,6.40
2023-02-12T03:38:58.226Z,6.39
2023-02-12T03:41:32.801Z,6.40
2023-02-12T03:44:18.766Z,6.39
2023-02-12T03:47:01.094Z,6.39
2023-02-12T03:49:46.193Z,6.39
2023-02-12T03:52:14.143Z,6.37
2023-02-12T03:54:42.034Z,6.37
2023-02-12T03:57:14.085Z,6.37
2023-02-12T03:59:42.838Z,6.37
2023-02-12T04:02:10.744Z,6.38
2023-02-12T04:04:38.934Z,6.38
2023-02-12T04:07:06.962Z,6.37
2023-02-12T04:09:34.879Z,6.38
2023-02-12T04:12:10.654Z,6.39
2023-02-12T04:15:26.387Z,6.40
2023-02-12T04:18:07.775Z,6.40
2023-02-12T04:20:48.082Z,6.41
2023-02-12T04:23:53.192Z,6.40
2023-02-12T04:26:27.652Z,6.38
2023-02-12T04:29:17.432Z,6.36
2023-02-12T04:31:57.101Z,6.36
2023-02-12T04:34:36.693Z,6.36
2023-02-12T04:37:11.998Z,6.37
2023-02-12T04:39:41.873Z,6.36
2023-02-12T04:42:09.727Z,6.37
2023-02-12T04:44:40.744Z,6.37
2023-02-12T04:47:12.084Z,6.39
2023-02-12T04:49:40.645Z,6.37
2023-02-12T04:52:09.126Z,6.36
2023-02-12T04:54:37.177Z,6.36
2023-02-12T04:57:05.200Z,6.36
2023-02-12T04:59:33.030Z,6.34
2023-02-12T05:02:00.864Z,6.30
2023-02-12T05:04:28.727Z,6.29
2023-02-12T05:06:56.517Z,6.30
2023-02-12T05:09:24.351Z,6.27
2023-02-12T05:11:52.213Z,6.28
2023-02-12T05:14:20.147Z,6.28
2023-02-12T05:16:47.915Z,6.28
2023-02-12T05:19:15.894Z,6.28
2023-02-12T05:21:43.723Z,6.27
2023-02-12T05:24:11.539Z,6.28
2023-02-12T05:26:39.404Z,6.28
2023-02-12T05:29:07.263Z,6.27
2023-02-12T05:31:35.479Z,6.27
2023-02-12T05:34:03.425Z,6.28
2023-02-12T05:36:31.379Z,6.25
2023-02-12T05:39:02.693Z,6.26
2023-02-12T05:41:34.897Z,6.25
2023-02-12T05:44:04.243Z,6.23
2023-02-12T05:46:32.685Z,6.22
2023-02-12T05:49:00.546Z,6.22
2023-02-12T05:51:28.800Z,6.23
2023-02-12T05:54:00.266Z,6.23
2023-02-12T05:56:33.204Z,6.20
2023-02-12T05:59:07.679Z,6.18
2023-02-12T06:01:40.678Z,6.15
2023-02-12T06:04:14.972Z,6.14
2023-02-12T06:06:43.813Z,6.14
2023-02-12T06:09:13.772Z,6.13
2023-02-12T06:11:42.757Z,6.13
2023-02-12T06:14:15.362Z,6.15
2023-02-12T06:16:48.354Z,6.16
2023-02-12T06:19:16.758Z,6.16
2023-02-12T06:21:44.692Z,6.15
2023-02-12T06:24:14.820Z,6.12
2023-02-12T06:26:43.511Z,6.11
2023-02-12T06:29:13.249Z,6.13
2023-02-12T06:31:41.217Z,6.12
2023-02-12T06:34:11.990Z,6.13
2023-02-12T06:36:42.674Z,6.11
2023-02-12T06:39:12.559Z,6.10
2023-02-12T06:41:41.128Z,6.09
2023-02-12T06:44:12.316Z,6.09
2023-02-12T06:46:40.189Z,6.11
2023-02-12T06:49:08.054Z,6.13
2023-02-12T06:51:38.375Z,6.15
2023-02-12T06:54:06.240Z,6.18
2023-02-12T06:56:34.183Z,6.20
2023-02-12T06:59:01.995Z,6.21
2023-02-12T07:01:30.560Z,6.22
2023-02-12T07:04:02.184Z,6.26
2023-02-12T07:06:33.338Z,6.29
2023-02-12T07:09:02.437Z,6.32
2023-02-12T07:11:36.067Z,6.35
2023-02-12T07:14:06.415Z,6.36
2023-02-12T07:16:34.712Z,6.37
2023-02-12T07:19:02.609Z,6.41
2023-02-12T07:21:32.038Z,6.44
2023-02-12T07:24:00.236Z,6.48
2023-02-12T07:26:28.364Z,6.49
2023-02-12T07:28:57.654Z,6.50
2023-02-12T07:31:25.817Z,6.54
2023-02-12T07:33:55.726Z,6.55
2023-02-12T07:36:24.901Z,6.60
2023-02-12T07:38:54.291Z,6.68
2023-02-12T07:41:23.117Z,6.75
2023-02-12T07:43:58.549Z,6.81
2023-02-12T07:46:30.834Z,6.86
2023-02-12T07:49:05.433Z,6.90
2023-02-12T07:51:34.964Z,6.92
2023-02-12T07:54:03.902Z,6.98
2023-02-12T07:56:35.375Z,7.02
2023-02-12T07:59:06.112Z,7.04
2023-02-12T08:01:39.894Z,7.06
2023-02-12T08:04:09.527Z,7.05
2023-02-12T08:06:40.786Z,7.02
2023-02-12T08:09:11.967Z,7.03
2023-02-12T08:11:41.532Z,7.06
2023-02-12T08:14:12.193Z,7.10
2023-02-12T08:16:41.504Z,7.12
2023-02-12T08:19:18.694Z,7.17
2023-02-12T08:21:54.986Z,7.23
2023-02-12T08:24:23.425Z,7.24
2023-02-12T08:26:52.355Z,7.20
2023-02-12T08:29:31.385Z,7.17
2023-02-12T08:32:01.581Z,7.18
2023-02-12T08:34:32.830Z,7.22
2023-02-12T08:37:01.210Z,7.28
2023-02-12T08:39:30.111Z,7.36
2023-02-12T08:41:59.537Z,7.40
2023-02-12T08:44:28.077Z,7.40
2023-02-12T08:46:55.994Z,7.39
2023-02-12T08:49:30.043Z,7.40
2023-02-12T08:51:59.971Z,7.43
2023-02-12T08:54:29.608Z,7.48
2023-02-12T08:57:00.120Z,7.56
2023-02-12T08:59:28.613Z,7.60
2023-02-12T09:01:56.953Z,7.64
2023-02-12T09:04:27.128Z,7.69
2023-02-12T09:06:55.976Z,7.70
2023-02-12T09:09:23.967Z,7.70
2023-02-12T09:11:51.890Z,7.67
2023-02-12T09:14:24.063Z,7.72
2023-02-12T09:16:53.838Z,7.81
2023-02-12T09:19:22.139Z,7.91
2023-02-12T09:21:56.053Z,7.96
2023-02-12T09:24:28.212Z,8.00
2023-02-12T09:26:56.737Z,8.07
2023-02-12T09:29:24.622Z,8.09
2023-02-12T09:31:52.736Z,8.10
2023-02-12T09:34:20.745Z,8.12
2023-02-12T09:36:48.596Z,8.07
2023-02-12T09:39:16.416Z,7.98
2023-02-12T09:42:10.846Z,7.99
2023-02-12T09:45:09.935Z,8.05
2023-02-12T09:47:59.732Z,8.09
2023-02-12T09:50:37.398Z,8.12
2023-02-12T09:53:06.104Z,8.16
2023-02-12T09:55:35.564Z,8.26
2023-02-12T09:58:11.392Z,8.42
2023-02-12T10:00:39.234Z,8.52
2023-02-12T10:03:15.020Z,8.61
2023-02-12T10:05:53.669Z,8.67
2023-02-12T10:08:40.802Z,8.76
2023-02-12T10:11:09.558Z,8.83
2023-02-12T10:13:49.713Z,8.85
2023-02-12T10:16:45.500Z,8.93
2023-02-12T10:19:33.135Z,9.15
2023-02-12T10:22:23.447Z,9.33
2023-02-12T10:25:24.013Z,9.53
2023-02-12T10:27:58.145Z,9.64
2023-02-12T10:30:37.653Z,9.73
2023-02-12T10:33:12.272Z,9.62
2023-02-12T10:35:48.371Z,9.35
2023-02-12T10:38:21.515Z,9.19
2023-02-12T10:40:50.817Z,9.11
2023-02-12T10:43:18.661Z,9.10
2023-02-12T10:45:46.690Z,9.16
2023-02-12T10:48:24.529Z,9.15
2023-02-12T10:51:08.131Z,9.11
2023-02-12T10:53:39.117Z,9.15
2023-02-12T10:56:12.206Z,9.20
2023-02-12T10:58:53.233Z,9.24
2023-02-12T11:01:26.303Z,9.24
2023-02-12T11:03:56.584Z,9.16
2023-02-12T11:06:27.862Z,9.18
2023-02-12T11:08:57.424Z,9.27
2023-02-12T11:11:33.484Z,9.29
2023-02-12T11:14:06.207Z,9.27
2023-02-12T11:16:37.944Z,9.23
2023-02-12T11:19:08.867Z,9.23
2023-02-12T11:21:36.790Z,9.21
2023-02-12T11:24:26.278Z,9.22
2023-02-12T11:27:11.074Z,9.30
2023-02-12T11:29:39.629Z,9.34
2023-02-12T11:32:15.185Z,9.33
2023-02-12T11:34:43.117Z,9.40
2023-02-12T11:37:17.635Z,9.48
2023-02-12T11:39:50.433Z,9.56
2023-02-12T11:42:23.328Z,9.62
2023-02-12T11:44:54.920Z,9.65
2023-02-12T11:47:27.535Z,9.70
2023-02-12T11:50:15.966Z,9.67
2023-02-12T11:52:44.227Z,9.61
2023-02-12T11:55:24.892Z,9.58
2023-02-12T11:58:01.129Z,9.60
2023-02-12T12:00:30.662Z,9.65
2023-02-12T12:03:28.687Z,9.72
2023-02-12T12:06:06.756Z,9.66
2023-02-12T12:09:09.316Z,9.61
2023-02-12T12:12:14.571Z,9.66
2023-02-12T12:15:57.186Z,9.78
2023-02-12T12:18:59.354Z,9.84
2023-02-12T12:21:47.087Z,10.20
2023-02-12T12:24:29.173Z,10.44
2023-02-12T12:27:04.510Z,10.66
2023-02-12T12:29:53.973Z,10.90
2023-02-12T12:32:25.983Z,11.09
2023-02-12T12:34:53.846Z,11.30
2023-02-12T12:37:56.245Z,11.35
2023-02-12T12:40:48.334Z,11.10
2023-02-12T12:43:25.007Z,10.91
2023-02-12T12:46:18.834Z,10.71
2023-02-12T12:49:03.716Z,10.66
2023-02-12T12:51:53.194Z,10.66
2023-02-12T12:54:38.992Z,10.63
2023-02-12T12:57:32.710Z,10.63
2023-02-12T13:00:15.013Z,10.62
2023-02-12T13:03:12.554Z,10.46
2023-02-12T13:06:02.906Z,10.44
2023-02-12T13:09:01.523Z,10.43
2023-02-12T13:11:44.466Z,10.35
2023-02-12T13:14:44.172Z,10.31
2023-02-12T13:17:26.730Z,10.24
2023-02-12T13:20:12.140Z,10.21
2023-02-12T13:22:42.916Z,10.15
2023-02-12T13:25:31.762Z,10.14
2023-02-12T13:28:02.285Z,10.23
2023-02-12T13:30:56.785Z,10.32
2023-02-12T13:33:32.663Z,10.40
2023-02-12T13:36:05.524Z,10.47
2023-02-12T13:38:46.167Z,10.46
2023-02-12T13:41:16.005Z,10.43
2023-02-12T13:43:52.866Z,10.43
2023-02-12T13:46:42.933Z,10.42
2023-02-12T13:49:16.791Z,10.46
2023-02-12T13:51:48.241Z,10.45
2023-02-12T13:54:47.152Z,10.45
2023-02-12T13:57:20.196Z,10.47
2023-02-12T13:59:56.009Z,10.39
2023-02-12T14:02:28.670Z,10.28
2023-02-12T14:05:00.379Z,10.17
2023-02-12T14:07:50.353Z,10.09
2023-02-12T14:10:27.892Z,10.00
2023-02-12T14:13:08.841Z,9.89
2023-02-12T14:15:44.633Z,9.77
2023-02-12T14:18:44.465Z,9.71
2023-02-12T14:21:12.316Z,9.65
2023-02-12T14:23:45.984Z,9.67
2023-02-12T14:26:17.933Z,9.72
2023-02-12T14:28:48.778Z,9.73
2023-02-12T14:31:23.217Z,9.80
2023-02-12T14:33:53.668Z,9.86
2023-02-12T14:36:33.620Z,9.84
2023-02-12T14:39:05.076Z,9.74
2023-02-12T14:41:38.643Z,9.71
2023-02-12T14:44:28.744Z,9.63
2023-02-12T14:47:00.532Z,9.55
2023-02-12T14:49:33.123Z,9.50
2023-02-12T14:52:06.925Z,9.51
2023-02-12T14:54:49.367Z,9.55
2023-02-12T14:57:26.409Z,9.55
2023-02-12T15:00:02.541Z,9.49
2023-02-12T15:02:35.131Z,9.46
2023-02-12T15:05:12.931Z,9.38
2023-02-12T15:07:45.905Z,9.30
2023-02-12T15:10:20.240Z,9.24
2023-02-12T15:13:03.016Z,9.18
2023-02-12T15:15:55.007Z,9.08
2023-02-12T15:18:31.802Z,8.97
2023-02-12T15:21:06.967Z,8.88
2023-02-12T15:23:43.550Z,8.77
2023-02-12T15:26:24.682Z,8.68
2023-02-12T15:28:53.729Z,8.63
2023-02-12T15:31:27.643Z,8.56
2023-02-12T15:33:57.804Z,8.47
2023-02-12T15:36:29.487Z,8.37
2023-02-12T15:39:01.554Z,8.30
2023-02-12T15:41:32.663Z,8.24
2023-02-12T15:44:05.084Z,8.16
2023-02-12T15:46:32.948Z,8.06
2023-02-12T15:49:01.258Z,7.96
2023-02-12T15:51:41.744Z,7.86
2023-02-12T15:54:20.232Z,7.76
2023-02-12T15:56:48.686Z,7.64
2023-02-12T15:59:24.121Z,7.56
2023-02-12T16:02:02.389Z,7.48
2023-02-12T16:04:34.189Z,7.40
2023-02-12T16:07:02.350Z,7.34
2023-02-12T16:09:35.901Z,7.27
2023-02-12T16:12:11.267Z,7.19
2023-02-12T16:14:56.323Z,7.11
2023-02-12T16:17:26.933Z,7.03
2023-02-12T16:19:58.596Z,6.99
2023-02-12T16:22:49.061Z,6.96
2023-02-12T16:25:19.629Z,6.93
2023-02-12T16:28:03.041Z,6.91
2023-02-12T16:30:39.915Z,6.90
2023-02-12T16:33:32.365Z,6.91
2023-02-12T16:36:25.083Z,6.94
2023-02-12T16:39:08.514Z,6.97
2023-02-12T16:41:55.376Z,7.01
2023-02-12T16:44:29.536Z,7.05
2023-02-12T16:47:00.639Z,7.09
2023-02-12T16:49:29.660Z,7.11
2023-02-12T16:52:35.524Z,7.15
2023-02-12T16:55:03.717Z,7.20
2023-02-12T16:57:31.692Z,7.26
2023-02-12T16:59:59.567Z,7.30
2023-02-12T17:02:27.470Z,7.35
2023-02-12T17:04:56.879Z,7.38
2023-02-12T17:07:28.215Z,7.41
2023-02-12T17:09:56.073Z,7.44
2023-02-12T17:12:24.323Z,7.46
2023-02-12T17:14:52.220Z,7.49
2023-02-12T17:17:20.309Z,7.50
2023-02-12T17:19:48.199Z,7.52
2023-02-12T17:22:26.182Z,7.54
2023-02-12T17:24:54.716Z,7.56
2023-02-12T17:27:22.680Z,7.57
2023-02-12T17:29:50.592Z,7.58
2023-02-12T17:32:18.755Z,7.60
2023-02-12T17:34:49.118Z,7.61
2023-02-12T17:37:18.287Z,7.63
2023-02-12T17:39:46.581Z,7.63
2023-02-12T17:42:14.838Z,7.63
2023-02-12T17:44:43.163Z,7.62
2023-02-12T17:47:11.079Z,7.60
2023-02-12T17:49:39.955Z,7.57
2023-02-12T17:52:08.078Z,7.56
2023-02-12T17:54:36.624Z,7.55
2023-02-12T17:57:04.634Z,7.53
2023-02-12T17:59:32.425Z,7.50
2023-02-12T18:02:00.498Z,7.48
2023-02-12T18:04:28.480Z,7.46
2023-02-12T18:06:57.358Z,7.45
2023-02-12T18:09:25.272Z,7.45
2023-02-12T18:11:53.147Z,7.43
2023-02-12T18:14:21.088Z,7.41
2023-02-12T18:16:49.120Z,7.40
2023-02-12T18:19:17.381Z,7.40
2023-02-12T18:21:45.194Z,7.39
2023-02-12T18:24:13.287Z,7.38
2023-02-12T18:26:41.424Z,7.36
2023-02-12T18:29:09.604Z,7.35
2023-02-12T18:31:37.578Z,7.34
2023-02-12T18:34:06.345Z,7.33
2023-02-12T18:36:34.783Z,7.30
2023-02-12T18:39:02.797Z,7.29
2023-02-12T18:41:32.914Z,7.29
2023-02-12T18:44:00.814Z,7.29
2023-02-12T18:46:30.950Z,7.27
2023-02-12T18:48:59.472Z,7.27
2023-02-12T18:51:30.839Z,7.29
2023-02-12T18:54:01.677Z,7.30
2023-02-12T18:56:31.476Z,7.31
2023-02-12T18:59:01.587Z,7.32
2023-02-12T19:01:29.534Z,7.33
2023-02-12T19:04:00.787Z,7.33
2023-02-12T19:06:29.913Z,7.31
2023-02-12T19:09:00.141Z,7.28
2023-02-12T19:11:29.121Z,7.24
2023-02-12T19:13:57.906Z,7.22
2023-02-12T19:16:26.882Z,7.19
2023-02-12T19:18:58.428Z,7.13
2023-02-12T19:21:26.412Z,7.09
2023-02-12T19:23:55.780Z,7.04
2023-02-12T19:26:24.338Z,7.01
2023-02-12T19:28:52.944Z,6.98
2023-02-12T19:31:24.798Z,6.93
2023-02-12T19:33:58.585Z,6.90
2023-02-12T19:36:27.350Z,6.89
2023-02-12T19:38:55.642Z,6.87
2023-02-12T19:41:26.285Z,6.88
2023-02-12T19:43:55.928Z,6.90
2023-02-12T19:46:25.449Z,6.90
2023-02-12T19:48:59.163Z,6.91
2023-02-12T19:51:32.443Z,6.92
2023-02-12T19:54:02.232Z,6.88
2023-02-12T19:56:30.944Z,6.83
2023-02-12T19:58:59.142Z,6.83
2023-02-12T20:01:28.940Z,6.85
2023-02-12T20:03:57.639Z,6.87
2023-02-12T20:06:33.393Z,6.88
2023-02-12T20:09:01.878Z,6.90
2023-02-12T20:11:32.862Z,6.89
2023-02-12T20:14:01.644Z,6.88
2023-02-12T20:16:37.547Z,6.88
2023-02-12T20:19:11.917Z,6.87
2023-02-12T20:21:39.987Z,6.87
2023-02-12T20:24:08.229Z,6.86
2023-02-12T20:26:36.503Z,6.84
2023-02-12T20:29:05.422Z,6.79
2023-02-12T20:31:35.901Z,6.78
2023-02-12T20:34:08.530Z,6.78
2023-02-12T20:36:38.121Z,6.79
2023-02-12T20:39:08.557Z,6.79
2023-02-12T20:41:39.826Z,6.78
2023-02-12T20:44:11.548Z,6.76
2023-02-12T20:46:39.639Z,6.76
2023-02-12T20:49:11.857Z,6.77
2023-02-12T20:51:40.334Z,6.78
2023-02-12T20:54:08.483Z,6.79
2023-02-12T20:56:37.313Z,6.80
2023-02-12T20:59:06.894Z,6.80
2023-02-12T21:01:39.559Z,6.79
2023-02-12T21:04:13.437Z,6.78
2023-02-12T21:06:42.064Z,6.77
2023-02-12T21:09:11.902Z,6.76
2023-02-12T21:11:42.213Z,6.76
2023-02-12T21:14:26.017Z,6.76
2023-02-12T21:16:55.475Z,6.78
2023-02-12T21:19:25.075Z,6.81
2023-02-12T21:21:53.673Z,6.83
2023-02-12T21:24:25.682Z,6.84
2023-02-12T21:26:54.996Z,6.85
2023-02-12T21:29:23.293Z,6.86
2023-02-12T21:31:51.642Z,6.88
2023-02-12T21:34:22.125Z,6.88
2023-02-12T21:36:52.448Z,6.86
2023-02-12T21:39:27.165Z,6.84
2023-02-12T21:41:58.349Z,6.83
2023-02-12T21:44:26.862Z,6.83
2023-02-12T21:46:55.489Z,6.81
2023-02-12T21:49:28.247Z,6.82
2023-02-12T21:52:02.354Z,6.82
2023-02-12T21:54:30.796Z,6.82
2023-02-12T21:56:59.857Z,6.82
2023-02-12T21:59:30.703Z,6.83
2023-02-12T22:02:00.693Z,6.82
2023-02-12T22:04:29.169Z,6.82
2023-02-12T22:06:58.021Z,6.83
2023-02-12T22:09:25.958Z,6.82
2023-02-12T22:11:53.846Z,6.83
2023-02-12T22:14:22.381Z,6.84
2023-02-12T22:16:50.547Z,6.87
2023-02-12T22:19:18.456Z,6.89
2023-02-12T22:21:46.326Z,6.89
2023-02-12T22:24:15.962Z,6.88
2023-02-12T22:26:44.718Z,6.87
2023-02-12T22:29:14.798Z,6.86
2023-02-12T22:31:45.390Z,6.85
2023-02-12T22:34:16.332Z,6.84
2023-02-12T22:36:45.310Z,6.84
2023-02-12T22:39:14.022Z,6.84
2023-02-12T22:41:42.485Z,6.85
2023-02-12T22:44:12.272Z,6.84
2023-02-12T22:46:41.931Z,6.83
2023-02-12T22:49:10.267Z,6.83
2023-02-12T22:51:39.656Z,6.82
2023-02-12T22:54:12.197Z,6.81
2023-02-12T22:56:40.542Z,6.80
2023-02-12T22:59:10.472Z,6.79
2023-02-12T23:01:39.733Z,6.80
2023-02-12T23:04:08.168Z,6.79
2023-02-12T23:06:36.118Z,6.79
2023-02-12T23:09:04.801Z,6.78
2023-02-12T23:11:33.875Z,6.78
2023-02-12T23:14:01.763Z,6.78
2023-02-12T23:16:29.675Z,6.78
2023-02-12T23:18:59.083Z,6.79
2023-02-12T23:21:28.922Z,6.79
2023-02-12T23:23:59.046Z,6.79
2023-02-12T23:26:28.793Z,6.80
2023-02-12T23:28:57.320Z,6.81
2023-02-12T23:31:25.554Z,6.80
2023-02-12T23:33:53.694Z,6.79
2023-02-12T23:36:21.593Z,6.80
2023-02-12T23:38:49.641Z,6.81
2023-02-12T23:41:17.740Z,6.81
2023-02-12T23:43:45.735Z,6.81
2023-02-12T23:46:13.716Z,6.82
2023-02-12T23:48:41.611Z,6.82
2023-02-12T23:51:10.146Z,6.82
2023-02-12T23:53:37.982Z,6.83
2023-02-12T23:56:06.903Z,6.82
2023-02-12T23:58:35.022Z,6.82
